Time;durP1;ratioP1;P1;durP2;ratioP2;P2;SDS_P1;SDS_P2;PMS_P1;PMS_P2;Temp;Humidity;BMP_temperature;BMP_pressure;BME280_temperature;BME280_humidity;BME280_pressure;Samples;Min_cycle;Max_cycle;Signal;HPM_P1;HPM_P2
2023/11/29 00:01:40;;;;;;;14.73;10.38;;;;;;;-0.19;100.00;95789.41;5028960;28;20460;-69
2023/11/29 00:04:05;;;;;;;14.95;9.18;;;;;;;-0.18;100.00;95782.94;5015482;28;20106;-69
2023/11/29 00:06:31;;;;;;;14.52;9.20;;;;;;;-0.25;100.00;95788.00;5003145;28;20516;-69
2023/11/29 00:08:57;;;;;;;15.57;9.43;;;;;;;-0.24;100.00;95784.97;5026878;28;20029;-69
2023/11/29 00:11:23;;;;;;;15.00;9.45;;;;;;;-0.28;100.00;95792.13;5025967;28;20060;-68
2023/11/29 00:13:48;;;;;;;13.73;9.50;;;;;;;-0.30;100.00;95797.03;5018682;28;20025;-68
2023/11/29 00:16:14;;;;;;;14.75;9.68;;;;;;;-0.49;100.00;95786.59;5022269;28;20099;-68
2023/11/29 00:18:39;;;;;;;14.18;9.23;;;;;;;-0.54;100.00;95785.97;5021349;28;20033;-71
2023/11/29 00:21:06;;;;;;;17.35;10.40;;;;;;;-0.49;100.00;95786.59;5028465;28;20048;-68
2023/11/29 00:23:32;;;;;;;15.35;9.32;;;;;;;-0.28;100.00;95788.63;5019789;28;20037;-69
2023/11/29 00:25:57;;;;;;;13.05;8.55;;;;;;;-0.32;100.00;95791.19;5025786;28;20120;-68
2023/11/29 00:28:22;;;;;;;12.43;8.40;;;;;;;-0.25;100.00;95778.03;5021648;28;20057;-69
2023/11/29 00:30:48;;;;;;;13.50;8.27;;;;;;;-0.21;100.00;95789.72;5021705;28;20786;-69
2023/11/29 00:33:13;;;;;;;12.13;7.97;;;;;;;-0.20;100.00;95787.81;5018755;28;20676;-68
2023/11/29 00:35:39;;;;;;;12.13;8.00;;;;;;;-0.22;100.00;95792.72;5009400;28;20072;-68
2023/11/29 00:38:04;;;;;;;11.38;8.15;;;;;;;-0.32;100.00;95787.72;5014738;28;20034;-68
2023/11/29 00:40:29;;;;;;;14.00;8.20;;;;;;;-0.34;100.00;95793.41;5025034;28;20057;-69
2023/11/29 00:42:55;;;;;;;13.38;8.00;;;;;;;-0.37;100.00;95787.88;5010011;28;20060;-69
2023/11/29 00:45:21;;;;;;;12.23;7.88;;;;;;;-0.41;100.00;95787.72;4992914;28;20040;-70
2023/11/29 00:47:46;;;;;;;15.50;9.65;;;;;;;-0.38;100.00;95792.44;5030586;28;20079;-71
2023/11/29 00:50:12;;;;;;;15.15;8.70;;;;;;;-0.39;100.00;95791.66;5002120;28;20116;-70
2023/11/29 00:52:37;;;;;;;14.15;8.98;;;;;;;-0.34;100.00;95784.50;5021301;28;20132;-70
2023/11/29 00:55:03;;;;;;;12.88;8.20;;;;;;;-0.45;100.00;95792.94;5026583;28;20478;-69
2023/11/29 00:57:28;;;;;;;14.02;8.40;;;;;;;-0.36;100.00;95790.25;5031127;28;20723;-69
2023/11/29 00:59:54;;;;;;;12.68;8.73;;;;;;;-0.40;100.00;95795.47;5023086;28;20045;-69
2023/11/29 01:02:19;;;;;;;12.13;8.35;;;;;;;-0.53;100.00;95801.78;5033935;28;20061;-69
2023/11/29 01:04:44;;;;;;;14.30;8.38;;;;;;;-0.57;100.00;95800.06;5026493;28;20034;-69
2023/11/29 01:07:10;;;;;;;13.63;8.48;;;;;;;-0.72;100.00;95796.75;5039192;28;20067;-73
2023/11/29 01:09:35;;;;;;;13.65;7.68;;;;;;;-0.69;100.00;95795.31;5045784;28;20041;-72
2023/11/29 01:12:01;;;;;;;12.90;8.35;;;;;;;-0.72;100.00;95801.31;5020326;28;20041;-73
2023/11/29 01:14:26;;;;;;;15.18;9.10;;;;;;;-0.78;100.00;95792.59;5030405;28;20044;-73
2023/11/29 01:16:52;;;;;;;13.52;8.60;;;;;;;-0.85;100.00;95797.66;5020940;28;20128;-73
2023/11/29 01:19:18;;;;;;;13.27;8.80;;;;;;;-0.83;100.00;95800.81;5022257;28;20053;-73
2023/11/29 01:21:44;;;;;;;12.45;8.70;;;;;;;-0.94;100.00;95803.03;5018763;28;20043;-73
2023/11/29 01:24:09;;;;;;;15.20;8.80;;;;;;;-1.06;100.00;95808.22;5017117;28;20079;-73
2023/11/29 01:26:35;;;;;;;13.40;9.02;;;;;;;-1.14;100.00;95801.72;5024041;28;20075;-72
2023/11/29 01:29:00;;;;;;;14.90;8.85;;;;;;;-1.19;100.00;95800.00;5029384;28;20041;-72
2023/11/29 01:31:26;;;;;;;14.02;8.45;;;;;;;-1.23;100.00;95801.69;5034009;28;20044;-72
2023/11/29 01:33:55;;;;;;;13.07;8.52;;;;;;;-1.08;100.00;95802.38;5022473;28;20041;-73
2023/11/29 01:36:20;;;;;;;12.83;8.80;;;;;;;-1.09;100.00;95801.56;5017333;28;20600;-71
2023/11/29 01:38:46;;;;;;;16.08;8.90;;;;;;;-1.18;100.00;95801.56;5012053;28;20075;-73
2023/11/29 01:41:12;;;;;;;13.88;8.32;;;;;;;-1.19;100.00;95801.88;5011278;28;20036;-72
2023/11/29 01:43:37;;;;;;;15.05;8.57;;;;;;;-1.32;100.00;95800.88;5052202;28;20688;-73
2023/11/29 01:46:03;;;;;;;15.27;9.35;;;;;;;-1.44;100.00;95800.69;5033604;28;20037;-71
2023/11/29 01:48:30;;;;;;;16.33;9.60;;;;;;;-1.46;100.00;95798.34;5032896;28;20488;-74
2023/11/29 01:50:57;;;;;;;12.95;8.07;;;;;;;-1.37;100.00;95791.09;5042908;28;20044;-74
2023/11/29 01:53:24;;;;;;;14.23;8.90;;;;;;;-1.39;100.00;95795.19;5035770;28;20047;-73
2023/11/29 01:55:52;;;;;;;12.05;7.75;;;;;;;-1.48;100.00;95797.84;5031325;28;20037;-73
2023/11/29 01:58:18;;;;;;;14.90;8.70;;;;;;;-1.52;100.00;95788.03;5036865;28;20124;-72
2023/11/29 02:00:44;;;;;;;12.90;8.23;;;;;;;-1.53;100.00;95795.31;5040873;28;20491;-72
2023/11/29 02:03:10;;;;;;;11.75;8.13;;;;;;;-1.50;100.00;95788.50;5034468;28;20048;-72
2023/11/29 02:05:36;;;;;;;12.98;8.50;;;;;;;-1.57;100.00;95787.09;5041761;28;20041;-72
2023/11/29 02:08:01;;;;;;;14.18;8.32;;;;;;;-1.57;100.00;95786.28;5041725;28;20075;-72
2023/11/29 02:10:27;;;;;;;12.82;8.18;;;;;;;-1.61;100.00;95791.47;5037180;28;20053;-71
2023/11/29 02:12:53;;;;;;;14.80;8.30;;;;;;;-1.60;100.00;95789.59;5014910;28;20494;-73
2023/11/29 02:18:40;;;;;;;13.20;8.30;;;;;;;-1.58;100.00;95785.50;5004161;28;20042;-73
2023/11/29 02:21:05;;;;;;;14.18;8.57;;;;;;;-1.63;100.00;95780.25;5034021;28;20033;-72
2023/11/29 02:23:51;;;;;;;13.02;8.75;;;;;;;-1.56;100.00;95785.97;5040252;28;20619;-73
2023/11/29 02:26:16;;;;;;;11.73;7.78;;;;;;;-1.42;100.00;95779.72;5020364;28;20129;-72
2023/11/29 02:28:42;;;;;;;12.45;7.43;;;;;;;-1.55;100.00;95784.88;5034241;28;20120;-74
2023/11/29 02:31:07;;;;;;;12.88;7.55;;;;;;;-1.45;100.00;95785.69;5031187;28;20038;-73
2023/11/29 02:33:32;;;;;;;12.07;7.47;;;;;;;-1.43;100.00;95788.84;5017524;28;20186;-76
2023/11/29 02:35:58;;;;;;;12.48;8.10;;;;;;;-1.41;100.00;95797.38;5004288;28;20111;-72
2023/11/29 02:38:23;;;;;;;12.00;7.70;;;;;;;-1.42;100.00;95793.13;5043432;22;20711;-73
2023/11/29 02:40:48;;;;;;;11.65;7.60;;;;;;;-1.36;100.00;95789.97;5052543;28;20044;-73
2023/11/29 02:43:14;;;;;;;11.50;7.45;;;;;;;-1.45;100.00;95788.38;5040534;28;20156;-71
2023/11/29 02:45:39;;;;;;;11.00;7.38;;;;;;;-1.41;100.00;95789.34;5043035;28;20477;-71
2023/11/29 02:48:05;;;;;;;13.13;7.88;;;;;;;-1.31;100.00;95789.06;5043643;28;20041;-69
2023/11/29 02:50:31;;;;;;;13.52;7.65;;;;;;;-1.31;100.00;95786.38;5017583;28;20069;-72
2023/11/29 02:52:57;;;;;;;14.27;7.45;;;;;;;-1.26;100.00;95796.97;5040344;28;20045;-71
2023/11/29 02:55:23;;;;;;;11.48;7.45;;;;;;;-1.22;100.00;95786.38;5021398;28;20570;-72
2023/11/29 02:57:49;;;;;;;12.30;7.70;;;;;;;-1.24;100.00;95791.25;5037361;28;20517;-71
2023/11/29 03:00:15;;;;;;;11.43;7.45;;;;;;;-1.23;100.00;95790.94;5029901;28;20080;-71
2023/11/29 03:02:41;;;;;;;11.77;7.40;;;;;;;-1.42;100.00;95783.19;5024776;28;20491;-71
2023/11/29 03:05:07;;;;;;;13.95;7.47;;;;;;;-1.34;100.00;95786.97;5029065;28;20488;-72
2023/11/29 03:07:32;;;;;;;14.93;8.23;;;;;;;-1.29;100.00;95789.53;5037313;28;20048;-73
2023/11/29 03:09:57;;;;;;;12.30;8.05;;;;;;;-1.33;100.00;95779.69;5031460;28;20045;-73
2023/11/29 03:12:23;;;;;;;13.57;8.27;;;;;;;-1.44;100.00;95780.00;5032620;28;20570;-70
2023/11/29 03:14:48;;;;;;;15.98;8.52;;;;;;;-1.37;100.00;95783.03;5031276;28;20037;-73
2023/11/29 03:17:14;;;;;;;10.25;7.13;;;;;;;-1.46;100.00;95778.72;5034838;28;20075;-72
2023/11/29 03:19:39;;;;;;;11.55;7.60;;;;;;;-1.43;100.00;95778.09;5041924;28;20045;-69
2023/11/29 03:22:05;;;;;;;13.20;7.88;;;;;;;-1.46;100.00;95786.78;5021567;28;20034;-70
2023/11/29 03:24:30;;;;;;;13.52;8.10;;;;;;;-1.57;100.00;95789.78;5025559;28;20199;-72
2023/11/29 03:26:55;;;;;;;11.68;7.78;;;;;;;-1.64;100.00;95786.75;5023687;28;20045;-72
2023/11/29 03:29:21;;;;;;;12.05;7.68;;;;;;;-1.55;100.00;95792.13;5021805;28;20874;-73
2023/11/29 03:31:46;;;;;;;13.65;8.00;;;;;;;-1.72;100.00;95787.50;5025998;28;20053;-72
2023/11/29 03:34:11;;;;;;;11.38;7.28;;;;;;;-1.62;100.00;95787.22;5020112;28;20045;-72
2023/11/29 03:36:37;;;;;;;11.35;7.25;;;;;;;-1.55;100.00;95795.63;5036259;28;20055;-72
2023/11/29 03:39:02;;;;;;;13.55;7.85;;;;;;;-1.56;100.00;95791.34;5014720;28;20498;-69
2023/11/29 03:41:28;;;;;;;11.15;7.15;;;;;;;-1.51;100.00;95787.72;5024998;28;20061;-70
2023/11/29 03:43:53;;;;;;;10.57;7.18;;;;;;;-1.53;100.00;95789.94;5027796;28;20103;-69
2023/11/29 03:46:18;;;;;;;12.65;7.00;;;;;;;-1.45;100.00;95785.69;5003076;28;20049;-70
2023/11/29 03:48:44;;;;;;;11.02;7.13;;;;;;;-1.42;100.00;95783.19;5027910;28;20051;-72
2023/11/29 03:51:09;;;;;;;9.48;6.55;;;;;;;-1.52;100.00;95788.81;5000813;28;20128;-70
2023/11/29 03:53:35;;;;;;;8.82;6.35;;;;;;;-1.47;100.00;95785.22;5028680;28;20053;-70
2023/11/29 03:56:00;;;;;;;10.80;6.63;;;;;;;-1.54;100.00;95789.13;5040902;28;20509;-71
2023/11/29 03:58:25;;;;;;;11.23;6.30;;;;;;;-1.47;100.00;95780.63;5037256;28;20053;-72
2023/11/29 04:00:51;;;;;;;10.07;6.07;;;;;;;-1.47;100.00;95785.22;5034942;28;20052;-71
2023/11/29 04:03:17;;;;;;;10.63;6.80;;;;;;;-1.60;100.00;95786.91;5038059;28;20056;-72
2023/11/29 04:05:42;;;;;;;11.63;6.60;;;;;;;-1.49;100.00;95782.84;5029873;28;20041;-72
2023/11/29 04:08:07;;;;;;;10.80;6.15;;;;;;;-1.55;100.00;95784.06;5033566;28;20068;-72
2023/11/29 04:10:33;;;;;;;10.90;6.80;;;;;;;-1.60;100.00;95790.38;5031085;28;20043;-71
2023/11/29 04:13:02;;;;;;;10.38;6.28;;;;;;;-1.60;100.00;95789.59;5022813;28;20076;-72
2023/11/29 04:15:27;;;;;;;9.18;6.43;;;;;;;-1.62;100.00;95789.09;5029337;28;20135;-71
2023/11/29 04:17:52;;;;;;;10.23;6.45;;;;;;;-1.49;100.00;95790.13;5017574;28;20132;-72
2023/11/29 04:20:18;;;;;;;9.95;6.47;;;;;;;-1.62;100.00;95789.91;4999852;28;20049;-72
2023/11/29 04:22:47;;;;;;;9.85;6.47;;;;;;;-1.47;100.00;95788.69;5030033;28;20377;-72
2023/11/29 04:25:12;;;;;;;10.33;6.93;;;;;;;-1.50;100.00;95783.16;5018037;28;20068;-71
2023/11/29 04:27:38;;;;;;;11.32;5.85;;;;;;;-1.59;100.00;95786.56;5032028;28;20320;-71
2023/11/29 04:30:04;;;;;;;9.45;6.10;;;;;;;-1.76;100.00;95786.53;5030359;28;20091;-70
2023/11/29 04:32:29;;;;;;;11.18;6.40;;;;;;;-1.87;100.00;95783.31;5012873;28;20045;-70
2023/11/29 04:34:54;;;;;;;8.48;6.40;;;;;;;-1.77;100.00;95774.97;5044329;28;20037;-70
2023/11/29 04:37:20;;;;;;;8.52;6.22;;;;;;;-1.82;100.00;95777.81;5037046;28;20056;-70
2023/11/29 04:39:45;;;;;;;11.75;6.18;;;;;;;-1.72;100.00;95771.38;5039044;28;20122;-70
2023/11/29 04:42:10;;;;;;;9.50;5.88;;;;;;;-1.88;100.00;95781.72;5033977;28;20049;-72
2023/11/29 04:44:36;;;;;;;8.50;6.00;;;;;;;-1.97;100.00;95770.94;5035078;28;20076;-72
2023/11/29 04:47:02;;;;;;;11.40;6.30;;;;;;;-2.02;100.00;95773.75;5029970;28;20045;-72
2023/11/29 04:49:27;;;;;;;8.02;5.70;;;;;;;-2.01;100.00;95771.88;5037174;28;20110;-72
2023/11/29 04:51:53;;;;;;;10.60;6.68;;;;;;;-1.97;100.00;95775.53;5026406;28;20064;-72
2023/11/29 04:54:18;;;;;;;9.18;6.38;;;;;;;-1.80;100.00;95770.25;5007806;28;20543;-72
2023/11/29 04:56:44;;;;;;;9.43;6.30;;;;;;;-1.63;100.00;95774.88;5032954;28;20049;-73
2023/11/29 04:59:10;;;;;;;10.90;6.05;;;;;;;-1.55;100.00;95782.19;5006176;28;20037;-73
2023/11/29 05:01:35;;;;;;;8.82;6.30;;;;;;;-1.40;100.00;95774.81;5040166;28;20079;-72
2023/11/29 05:04:01;;;;;;;10.07;6.70;;;;;;;-1.39;100.00;95771.81;5038007;28;20044;-73
2023/11/29 05:06:26;;;;;;;11.77;7.10;;;;;;;-1.32;100.00;95776.72;5032851;28;20104;-74
2023/11/29 05:08:51;;;;;;;9.32;6.68;;;;;;;-1.27;100.00;95778.47;5041193;28;20052;-71
2023/11/29 05:11:17;;;;;;;8.50;6.43;;;;;;;-1.11;100.00;95784.19;5023013;28;20048;-73
2023/11/29 05:13:42;;;;;;;8.25;5.78;;;;;;;-1.13;100.00;95778.31;5031994;28;20050;-72
2023/11/29 05:16:08;;;;;;;10.40;6.65;;;;;;;-1.28;100.00;95777.66;5034095;28;20048;-70
2023/11/29 05:18:33;;;;;;;9.35;6.63;;;;;;;-1.21;100.00;95783.38;5030614;28;20137;-70
2023/11/29 05:20:59;;;;;;;9.25;6.63;;;;;;;-1.20;100.00;95786.88;5050358;28;20076;-72
2023/11/29 05:23:29;;;;;;;9.38;6.32;;;;;;;-1.24;100.00;95784.00;5033891;28;20049;-70
2023/11/29 05:25:56;;;;;;;11.07;6.93;;;;;;;-1.17;100.00;95789.72;5039745;28;20041;-72
2023/11/29 05:28:26;;;;;;;9.93;6.53;;;;;;;-1.05;100.00;95782.94;5041170;28;20041;-74
2023/11/29 05:30:52;;;;;;;11.07;7.05;;;;;;;-1.09;100.00;95784.69;5046097;28;20087;-73
2023/11/29 05:33:20;;;;;;;11.23;7.13;;;;;;;-0.96;100.00;95781.03;5033690;28;20042;-73
2023/11/29 05:35:45;;;;;;;8.95;6.40;;;;;;;-0.95;100.00;95782.63;5033745;28;20060;-73
2023/11/29 05:38:11;;;;;;;8.38;6.07;;;;;;;-1.00;100.00;95780.88;5020459;28;20046;-73
2023/11/29 05:40:36;;;;;;;8.85;6.22;;;;;;;-1.04;100.00;95789.91;5041478;28;20041;-72
2023/11/29 05:43:02;;;;;;;8.88;6.45;;;;;;;-0.90;100.00;95781.69;5038340;28;20134;-74
2023/11/29 05:45:27;;;;;;;10.90;6.32;;;;;;;-0.87;100.00;95783.75;5033131;28;20049;-72
2023/11/29 05:47:53;;;;;;;9.77;6.53;;;;;;;-0.92;100.00;95786.59;5038868;28;20037;-71
2023/11/29 05:50:18;;;;;;;9.23;6.72;;;;;;;-1.01;100.00;95794.63;5033412;28;20045;-71
2023/11/29 05:52:44;;;;;;;9.43;6.20;;;;;;;-1.03;100.00;95796.84;5034068;28;20053;-71
2023/11/29 05:55:10;;;;;;;10.35;6.63;;;;;;;-1.07;100.00;95802.06;5030231;28;20041;-72
2023/11/29 05:57:35;;;;;;;9.57;6.60;;;;;;;-1.02;100.00;95799.22;5019711;28;20075;-74
2023/11/29 06:00:08;;;;;;;11.48;7.05;;;;;;;-0.94;100.00;95796.88;5020134;28;20453;-71
2023/11/29 06:02:34;;;;;;;9.65;6.88;;;;;;;-0.98;100.00;95802.06;5021392;28;20057;-72
2023/11/29 06:05:00;;;;;;;10.48;6.75;;;;;;;-0.91;100.00;95797.03;5034285;28;20028;-72
2023/11/29 06:07:25;;;;;;;18.45;9.73;;;;;;;-0.97;100.00;95798.28;5030611;28;20052;-73
2023/11/29 06:09:51;;;;;;;9.65;6.15;;;;;;;-0.97;100.00;95796.38;5025043;28;20134;-69
2023/11/29 06:12:16;;;;;;;11.50;8.63;;;;;;;-1.01;100.00;95802.69;5027218;28;20577;-69
2023/11/29 06:14:42;;;;;;;10.48;6.50;;;;;;;-0.95;100.00;95796.06;5040674;28;20154;-72
2023/11/29 06:17:08;;;;;;;11.05;6.80;;;;;;;-0.98;100.00;95794.78;5029982;28;20403;-70
2023/11/29 06:19:34;;;;;;;8.88;6.03;;;;;;;-0.88;100.00;95796.41;5025207;28;20045;-72
2023/11/29 06:21:59;;;;;;;9.82;6.45;;;;;;;-0.89;100.00;95810.94;5033192;28;20078;-73
2023/11/29 06:24:25;;;;;;;10.50;6.70;;;;;;;-0.93;100.00;95804.63;5011308;28;20044;-74
2023/11/29 06:26:50;;;;;;;9.40;6.18;;;;;;;-0.90;100.00;95805.88;5030909;28;20049;-75
2023/11/29 06:29:16;;;;;;;9.38;6.13;;;;;;;-0.93;100.00;95803.84;5012633;28;20391;-75
2023/11/29 06:31:41;;;;;;;11.00;7.13;;;;;;;-0.94;100.00;95811.09;5023497;28;20083;-73
2023/11/29 06:34:07;;;;;;;12.02;7.25;;;;;;;-0.84;100.00;95804.63;5033237;28;20049;-73
2023/11/29 06:36:34;;;;;;;10.02;6.35;;;;;;;-0.79;100.00;95801.78;5013772;28;20449;-73
2023/11/29 06:38:59;;;;;;;9.38;6.95;;;;;;;-0.80;100.00;95797.50;5031853;28;20033;-73
2023/11/29 06:41:25;;;;;;;8.57;5.97;;;;;;;-0.66;100.00;95806.22;5026423;28;20083;-74
2023/11/29 06:43:52;;;;;;;9.50;6.18;;;;;;;-0.60;100.00;95815.69;5013727;28;20052;-74
2023/11/29 06:46:18;;;;;;;12.90;6.55;;;;;;;-0.46;100.00;95812.06;5031361;28;20041;-73
2023/11/29 06:48:43;;;;;;;8.90;6.50;;;;;;;-0.57;100.00;95816.19;5037549;28;20106;-73
2023/11/29 06:51:08;;;;;;;8.52;5.75;;;;;;;-0.51;100.00;95820.31;5030591;28;20040;-73
2023/11/29 06:53:35;;;;;;;11.52;6.85;;;;;;;-0.53;100.00;95814.44;5025664;28;20068;-73
2023/11/29 06:56:01;;;;;;;8.57;5.78;;;;;;;-0.68;100.00;95810.34;5032339;28;20038;-73
2023/11/29 06:58:27;;;;;;;10.93;6.55;;;;;;;-0.72;100.00;95817.44;5023316;28;20041;-74
2023/11/29 07:00:53;;;;;;;9.93;6.45;;;;;;;-0.28;100.00;95819.03;5008809;28;20214;-72
2023/11/29 07:03:18;;;;;;;10.70;6.80;;;;;;;-0.30;100.00;95829.31;5032479;28;20045;-72
2023/11/29 07:05:45;;;;;;;10.52;6.68;;;;;;;-0.26;100.00;95829.47;5030371;28;20131;-73
2023/11/29 07:08:10;;;;;;;13.38;7.15;;;;;;;-0.43;100.00;95828.38;5036847;28;20053;-73
2023/11/29 07:10:36;;;;;;;12.05;6.50;;;;;;;-0.56;100.00;95828.53;5033311;28;20077;-74
2023/11/29 07:13:02;;;;;;;9.75;5.97;;;;;;;-0.54;100.00;95835.19;5024817;28;20684;-73
2023/11/29 07:15:27;;;;;;;10.80;7.20;;;;;;;-0.35;100.00;95831.38;5027226;28;20079;-73
2023/11/29 07:17:56;;;;;;;11.57;6.43;;;;;;;-0.31;100.00;95833.09;5027765;28;20045;-73
2023/11/29 07:20:21;;;;;;;10.82;7.57;;;;;;;-0.26;100.00;95829.47;5026185;28;20574;-74
2023/11/29 07:22:46;;;;;;;11.60;6.47;;;;;;;-0.10;100.00;95830.56;5040848;28;20041;-73
2023/11/29 07:25:15;;;;;;;11.57;7.35;;;;;;;-0.07;100.00;95829.94;5035972;28;20068;-73
2023/11/29 07:27:40;;;;;;;9.18;6.32;;;;;;;-0.07;100.00;95834.53;5043218;28;20045;-73
2023/11/29 07:30:07;;;;;;;10.90;6.45;;;;;;;-0.09;100.00;95832.16;5039940;28;20288;-71
2023/11/29 07:32:33;;;;;;;8.93;6.40;;;;;;;-0.07;100.00;95829.94;5014692;28;20049;-72
2023/11/29 07:34:58;;;;;;;11.13;7.40;;;;;;;-0.07;100.00;95832.63;5041852;28;20190;-73
2023/11/29 07:37:23;;;;;;;10.55;6.68;;;;;;;-0.01;100.00;95834.03;5037303;28;20289;-72
2023/11/29 07:39:49;;;;;;;10.65;7.10;;;;;;;0.12;100.00;95831.47;5041835;28;20045;-73
2023/11/29 07:42:14;;;;;;;9.25;6.57;;;;;;;0.23;100.00;95834.63;5038126;28;20074;-72
2023/11/29 07:44:40;;;;;;;11.30;6.63;;;;;;;0.27;100.00;95833.66;5032614;28;20045;-72
2023/11/29 07:47:06;;;;;;;8.23;6.00;;;;;;;0.45;100.00;95836.28;5055176;28;20024;-72
2023/11/29 07:49:31;;;;;;;10.45;6.45;;;;;;;0.66;100.00;95834.47;5049356;28;20095;-73
2023/11/29 07:51:57;;;;;;;9.10;6.47;;;;;;;1.31;100.00;95835.09;5045394;28;20048;-74
2023/11/29 07:54:22;;;;;;;9.55;6.63;;;;;;;1.65;100.00;95841.31;5035946;28;20591;-74
2023/11/29 07:56:48;;;;;;;8.85;6.10;;;;;;;1.80;100.00;95841.84;5034081;28;20056;-73
2023/11/29 07:59:14;;;;;;;10.23;6.40;;;;;;;1.79;100.00;95835.66;5018280;28;20052;-72
2023/11/29 08:01:40;;;;;;;9.30;6.13;;;;;;;1.87;100.00;95834.81;5040994;28;20454;-73
2023/11/29 08:04:07;;;;;;;13.55;6.40;;;;;;;1.56;100.00;95851.41;5034421;28;20044;-73
2023/11/29 08:06:32;;;;;;;9.48;6.03;;;;;;;1.83;100.00;95843.91;5029322;28;20048;-72
2023/11/29 08:08:58;;;;;;;9.80;5.88;;;;;;;2.23;100.00;95849.56;5044160;28;20036;-72
2023/11/29 08:11:23;;;;;;;10.60;5.60;;;;;;;2.86;100.00;95853.94;5040131;28;20550;-73
2023/11/29 08:13:49;;;;;;;8.48;6.22;;;;;;;3.09;100.00;95854.28;5041098;28;20104;-73
2023/11/29 08:16:15;;;;;;;7.70;5.50;;;;;;;3.90;94.19;95857.09;5036302;28;20548;-73
2023/11/29 08:18:40;;;;;;;9.18;5.45;;;;;;;4.30;90.11;95867.09;5028288;28;20049;-73
2023/11/29 08:21:06;;;;;;;7.10;5.00;;;;;;;5.06;83.14;95869.81;5021457;28;20051;-73
2023/11/29 08:23:32;;;;;;;8.43;4.88;;;;;;;5.86;75.44;95872.38;5040410;28;20045;-74
2023/11/29 08:25:57;;;;;;;7.25;4.82;;;;;;;5.49;74.96;95873.53;5022863;28;20056;-74
2023/11/29 08:28:23;;;;;;;6.22;4.45;;;;;;;5.36;73.03;95877.47;5038898;28;20057;-73
2023/11/29 08:30:49;;;;;;;6.00;4.43;;;;;;;4.98;74.49;95874.25;5021428;28;20415;-73
2023/11/29 08:33:14;;;;;;;8.88;4.90;;;;;;;5.82;68.90;95876.97;5037158;28;20052;-74
2023/11/29 08:35:41;;;;;;;7.35;4.40;;;;;;;6.27;66.01;95875.56;5040032;28;20425;-73
2023/11/29 08:38:06;;;;;;;11.82;5.70;;;;;;;6.88;61.83;95887.59;5016934;28;20769;-73
2023/11/29 08:40:32;;;;;;;8.65;4.97;;;;;;;6.50;64.87;95879.13;5039607;28;20080;-74
2023/11/29 08:42:57;;;;;;;5.97;4.30;;;;;;;7.60;58.94;95886.03;5040841;28;20136;-74
2023/11/29 08:45:22;;;;;;;5.88;4.22;;;;;;;7.66;56.98;95879.09;5032461;28;20072;-73
2023/11/29 08:47:48;;;;;;;5.15;3.25;;;;;;;5.98;60.20;95868.75;5040037;28;20136;-73
2023/11/29 08:50:13;;;;;;;8.50;4.53;;;;;;;5.28;63.55;95873.81;5033654;28;20048;-73
2023/11/29 08:52:42;;;;;;;5.07;4.10;;;;;;;4.24;71.11;95876.63;5039592;28;20045;-73
2023/11/29 08:55:08;;;;;;;7.88;4.78;;;;;;;4.53;69.82;95886.28;5031299;28;20068;-73
2023/11/29 08:57:34;;;;;;;7.70;4.57;;;;;;;4.55;70.73;95889.44;5027229;28;20107;-74
2023/11/29 08:59:59;;;;;;;7.32;4.57;;;;;;;4.78;68.80;95892.38;5031996;28;20040;-75
2023/11/29 09:02:27;;;;;;;6.30;4.80;;;;;;;5.87;65.80;95890.25;5033722;28;20076;-74
2023/11/29 09:04:53;;;;;;;5.53;4.22;;;;;;;5.74;64.53;95893.09;5038737;28;20041;-73
2023/11/29 09:07:18;;;;;;;6.95;4.38;;;;;;;5.89;63.78;95887.97;5015721;28;20052;-74
2023/11/29 09:09:45;;;;;;;5.65;4.80;;;;;;;5.87;63.50;95890.25;5039653;28;20164;-74
2023/11/29 09:12:11;;;;;;;8.98;5.13;;;;;;;5.81;62.75;95887.03;5033883;28;20033;-74
2023/11/29 09:14:39;;;;;;;5.57;4.45;;;;;;;5.67;63.35;95890.22;5043516;28;20041;-74
2023/11/29 09:17:05;;;;;;;6.05;4.60;;;;;;;5.89;64.47;95893.41;5038986;28;20033;-75
2023/11/29 09:19:34;;;;;;;10.70;5.05;;;;;;;5.30;65.11;95890.53;5032050;28;20044;-74
2023/11/29 09:22:01;;;;;;;6.22;4.70;;;;;;;6.17;63.75;95887.78;5042545;28;20423;-74
2023/11/29 09:24:26;;;;;;;7.82;4.43;;;;;;;6.95;59.51;95881.47;5038353;28;20083;-74
2023/11/29 09:26:54;;;;;;;6.00;4.78;;;;;;;6.68;58.45;95884.91;5042239;28;20124;-74
2023/11/29 09:29:20;;;;;;;5.60;4.20;;;;;;;6.49;58.82;95882.22;5037562;28;20041;-73
2023/11/29 09:31:45;;;;;;;6.10;4.65;;;;;;;5.53;62.49;95876.34;5042135;28;20044;-73
2023/11/29 09:34:11;;;;;;;6.80;4.28;;;;;;;5.14;65.07;95870.75;5035384;28;20368;-74
2023/11/29 09:36:36;;;;;;;11.98;5.03;;;;;;;5.02;64.84;95865.44;5042583;28;20573;-73
2023/11/29 09:39:12;;;;;;;10.25;5.07;;;;;;;5.26;64.27;95867.19;5042011;28;20041;-76
2023/11/29 09:41:37;;;;;;;6.25;4.75;;;;;;;4.75;66.33;95867.88;5034486;28;20067;-74
2023/11/29 09:44:03;;;;;;;6.22;4.40;;;;;;;5.14;66.07;95865.34;5039309;28;20044;-73
2023/11/29 09:46:30;;;;;;;7.43;4.47;;;;;;;4.44;68.00;95866.69;5039980;28;20570;-74
2023/11/29 09:48:58;;;;;;;6.15;4.50;;;;;;;3.58;73.77;95848.03;5033760;28;20139;-72
2023/11/29 09:51:24;;;;;;;6.43;5.10;;;;;;;3.34;76.54;95855.06;5037613;28;20674;-75
2023/11/29 09:53:49;;;;;;;10.95;6.30;;;;;;;3.38;80.46;95844.34;5024168;28;20503;-74
2023/11/29 09:56:14;;;;;;;6.70;5.38;;;;;;;3.70;78.60;95850.72;5036671;28;20041;-75
2023/11/29 09:58:40;;;;;;;6.45;5.00;;;;;;;3.82;79.01;95847.97;5045995;28;20071;-74
2023/11/29 10:01:05;;;;;;;8.32;4.90;;;;;;;3.91;77.76;95845.13;5044673;28;20068;-75
2023/11/29 10:03:31;;;;;;;10.75;5.30;;;;;;;4.55;75.46;95848.00;5047121;28;20059;-73
2023/11/29 10:05:56;;;;;;;7.55;5.05;;;;;;;4.44;75.15;95838.78;5032932;28;20071;-73
2023/11/29 10:08:23;;;;;;;11.30;5.07;;;;;;;4.18;75.27;95838.13;5038113;28;20056;-75
2023/11/29 10:10:50;;;;;;;6.93;4.90;;;;;;;5.13;71.80;95836.59;5041788;28;20045;-73
2023/11/29 10:13:16;;;;;;;8.60;4.72;;;;;;;5.30;68.51;95833.53;5034952;28;20528;-73
2023/11/29 10:15:46;;;;;;;7.65;5.55;;;;;;;4.71;69.14;95824.38;5043326;28;20053;-74
2023/11/29 10:18:12;;;;;;;;;;;;;;;4.70;70.78;95835.56;5036193;28;20033;-74
2023/11/29 10:20:37;;;;;;;6.68;5.03;;;;;;;4.63;69.63;95830.78;5020639;28;20018;-72
2023/11/29 10:23:03;;;;;;;10.43;5.18;;;;;;;4.51;71.19;95825.41;5038747;28;20115;-73
2023/11/29 10:25:32;;;;;;;9.70;5.68;;;;;;;4.46;73.21;95812.13;5030362;28;20114;-73
2023/11/29 10:27:58;;;;;;;7.13;4.78;;;;;;;4.11;74.58;95816.25;5039562;28;20044;-73
2023/11/29 10:30:23;;;;;;;8.77;5.70;;;;;;;3.75;78.40;95807.16;5037042;28;20084;-73
2023/11/29 10:32:50;;;;;;;7.75;5.10;;;;;;;3.63;80.50;95807.19;5036480;28;20061;-73
2023/11/29 10:35:18;;;;;;;12.10;5.53;;;;;;;4.04;80.29;95807.16;5037083;28;20041;-73
2023/11/29 10:37:50;;;;;;;7.93;5.50;;;;;;;4.20;77.08;95811.47;5032932;28;20139;-73
2023/11/29 10:40:15;;;;;;;7.30;5.03;;;;;;;4.07;78.33;95803.72;5035605;28;20045;-74
2023/11/29 10:42:50;;;;;;;6.90;5.10;;;;;;;3.90;79.67;95802.13;5039195;28;20051;-74
2023/11/29 10:45:17;;;;;;;9.55;5.68;;;;;;;3.64;82.56;95800.66;5016571;28;20051;-74
2023/11/29 10:48:11;;;;;;;7.35;4.80;;;;;;;3.32;83.29;95797.78;5042353;28;20045;-74
2023/11/29 10:50:38;;;;;;;8.73;5.20;;;;;;;3.23;85.34;95787.09;5033481;28;20048;-72
2023/11/29 10:53:04;;;;;;;7.00;4.75;;;;;;;3.22;81.90;95787.44;5037593;28;20033;-72
2023/11/29 10:55:35;;;;;;;7.75;4.60;;;;;;;2.90;82.58;95781.84;5042967;28;20044;-73
2023/11/29 10:58:18;;;;;;;6.82;4.70;;;;;;;2.92;83.16;95781.47;5041111;28;20053;-72
2023/11/29 11:00:45;;;;;;;6.30;4.10;;;;;;;3.06;80.43;95780.03;5030658;28;20045;-73
2023/11/29 11:03:46;;;;;;;6.53;4.03;;;;;;;3.16;81.31;95786.09;5032144;28;20053;-73
2023/11/29 11:06:21;;;;;;;5.65;4.28;;;;;;;2.85;83.62;95777.44;5036212;28;20419;-75
2023/11/29 11:08:47;;;;;;;6.60;4.65;;;;;;;2.83;83.55;95779.69;5037912;28;20041;-76
2023/11/29 11:11:45;;;;;;;8.18;4.93;;;;;;;3.04;82.19;95768.75;5036912;28;20399;-73
2023/11/29 11:14:31;;;;;;;6.30;4.38;;;;;;;3.62;78.86;95770.41;5039489;28;20551;-73
2023/11/29 11:16:56;;;;;;;6.57;4.05;;;;;;;3.73;77.72;95771.50;5060327;28;20051;-74
2023/11/29 11:19:34;;;;;;;6.78;4.40;;;;;;;4.19;75.58;95765.72;5041438;28;20397;-73
2023/11/29 11:22:01;;;;;;;5.13;4.05;;;;;;;4.12;73.64;95769.03;5039344;28;20170;-73
2023/11/29 11:25:00;;;;;;;5.45;4.00;;;;;;;3.59;75.48;95762.97;5029127;28;20044;-73
2023/11/29 11:27:28;;;;;;;6.78;4.55;;;;;;;3.31;77.00;95763.72;5025191;28;20059;-74